sensor_id;sensor_type;location;lat;lon;timestamp;pressure;altitude;pressure_sealevel;temperature;humidity
11413;BME280;5762;43.256;26.960;2024-01-16T00:02:22;98498.92;;;9.41;100.00
11413;BME280;5762;43.256;26.960;2024-01-16T00:07:53;98484.34;;;9.34;100.00
11413;BME280;5762;43.256;26.960;2024-01-16T00:10:22;98487.53;;;9.27;100.00
11413;BME280;5762;43.256;26.960;2024-01-16T00:15:54;98497.77;;;9.02;100.00
11413;BME280;5762;43.256;26.960;2024-01-16T00:21:26;98513.19;;;8.93;100.00
11413;BME280;5762;43.256;26.960;2024-01-16T00:26:57;98530.87;;;8.88;100.00
11413;BME280;5762;43.256;26.960;2024-01-16T00:32:30;98563.02;;;9.13;100.00
11413;BME280;5762;43.256;26.960;2024-01-16T00:38:02;98508.33;;;9.18;100.00
11413;BME280;5762;43.256;26.960;2024-01-16T00:43:34;98490.81;;;9.41;100.00
11413;BME280;5762;43.256;26.960;2024-01-16T00:49:05;98482.05;;;9.62;100.00
11413;BME280;5762;43.256;26.960;2024-01-16T00:51:34;98462.27;;;9.64;100.00
11413;BME280;5762;43.256;26.960;2024-01-16T00:57:06;98448.38;;;9.74;100.00
11413;BME280;5762;43.256;26.960;2024-01-16T00:59:36;98452.87;;;9.70;100.00
11413;BME280;5762;43.256;26.960;2024-01-16T01:02:05;98465.67;;;9.67;100.00
11413;BME280;5762;43.256;26.960;2024-01-16T01:04:34;98459.36;;;9.46;100.00
11413;BME280;5762;43.256;26.960;2024-01-16T01:10:06;98486.92;;;8.96;100.00
11413;BME280;5762;43.256;26.960;2024-01-16T01:15:37;98523.56;;;8.80;100.00
11413;BME280;5762;43.256;26.960;2024-01-16T01:21:09;98538.59;;;9.00;100.00
11413;BME280;5762;43.256;26.960;2024-01-16T01:26:44;98543.17;;;9.08;100.00
11413;BME280;5762;43.256;26.960;2024-01-16T01:32:15;98553.09;;;8.85;100.00
11413;BME280;5762;43.256;26.960;2024-01-16T01:37:47;98593.98;;;8.69;100.00
11413;BME280;5762;43.256;26.960;2024-01-16T01:43:19;98622.31;;;8.98;100.00
11413;BME280;5762;43.256;26.960;2024-01-16T01:48:49;98611.90;;;9.02;100.00
11413;BME280;5762;43.256;26.960;2024-01-16T01:51:18;98601.11;;;8.94;100.00
11413;BME280;5762;43.256;26.960;2024-01-16T01:56:50;98596.43;;;9.05;100.00
11413;BME280;5762;43.256;26.960;2024-01-16T01:59:18;98619.70;;;9.13;100.00
11413;BME280;5762;43.256;26.960;2024-01-16T02:04:51;98647.03;;;9.20;100.00
11413;BME280;5762;43.256;26.960;2024-01-16T02:10:23;98664.02;;;9.20;100.00
11413;BME280;5762;43.256;26.960;2024-01-16T02:15:54;98640.66;;;8.98;100.00
11413;BME280;5762;43.256;26.960;2024-01-16T02:21:27;98642.06;;;8.48;100.00
11413;BME280;5762;43.256;26.960;2024-01-16T02:26:59;98699.58;;;8.65;100.00
11413;BME280;5762;43.256;26.960;2024-01-16T02:32:31;98710.25;;;8.79;100.00
11413;BME280;5762;43.256;26.960;2024-01-16T02:37:59;98669.27;;;8.49;100.00
11413;BME280;5762;43.256;26.960;2024-01-16T02:40:28;98679.03;;;8.36;100.00
11413;BME280;5762;43.256;26.960;2024-01-16T02:46:00;98696.06;;;8.34;100.00
11413;BME280;5762;43.256;26.960;2024-01-16T02:51:32;98707.53;;;8.17;100.00
11413;BME280;5762;43.256;26.960;2024-01-16T02:57:05;98747.14;;;8.05;100.00
11413;BME280;5762;43.256;26.960;2024-01-16T02:59:34;98750.58;;;8.08;100.00
11413;BME280;5762;43.256;26.960;2024-01-16T03:05:06;98753.83;;;8.19;100.00
11413;BME280;5762;43.256;26.960;2024-01-16T03:10:38;98765.03;;;7.90;100.00
11413;BME280;5762;43.256;26.960;2024-01-16T03:16:10;98788.47;;;7.90;100.00
11413;BME280;5762;43.256;26.960;2024-01-16T03:18:38;98795.26;;;7.98;100.00
11413;BME280;5762;43.256;26.960;2024-01-16T03:24:10;98783.38;;;7.99;100.00
11413;BME280;5762;43.256;26.960;2024-01-16T03:29:41;98779.66;;;8.09;100.00
11413;BME280;5762;43.256;26.960;2024-01-16T03:35:13;98796.06;;;7.99;100.00
11413;BME280;5762;43.256;26.960;2024-01-16T03:40:45;98777.77;;;8.10;100.00
11413;BME280;5762;43.256;26.960;2024-01-16T03:43:13;98744.16;;;8.40;100.00
11413;BME280;5762;43.256;26.960;2024-01-16T03:48:41;98651.80;;;9.23;100.00
11413;BME280;5762;43.256;26.960;2024-01-16T03:51:10;98613.28;;;9.63;100.00
11413;BME280;5762;43.256;26.960;2024-01-16T03:53:39;98597.11;;;9.86;100.00
11413;BME280;5762;43.256;26.960;2024-01-16T03:59:10;98580.80;;;9.97;100.00
11413;BME280;5762;43.256;26.960;2024-01-16T04:04:41;98578.27;;;9.92;100.00
11413;BME280;5762;43.256;26.960;2024-01-16T04:10:14;98601.56;;;9.82;100.00
11413;BME280;5762;43.256;26.960;2024-01-16T04:15:46;98638.13;;;9.71;100.00
11413;BME280;5762;43.256;26.960;2024-01-16T04:18:15;98673.75;;;9.64;100.00
11413;BME280;5762;43.256;26.960;2024-01-16T04:23:47;98704.26;;;9.65;100.00
11413;BME280;5762;43.256;26.960;2024-01-16T04:29:19;98689.55;;;9.60;100.00
11413;BME280;5762;43.256;26.960;2024-01-16T04:34:51;98695.27;;;9.58;100.00
11413;BME280;5762;43.256;26.960;2024-01-16T04:40:22;98711.46;;;9.50;100.00
11413;BME280;5762;43.256;26.960;2024-01-16T04:45:55;98763.03;;;9.22;100.00
11413;BME280;5762;43.256;26.960;2024-01-16T04:51:27;98816.84;;;8.99;100.00
11413;BME280;5762;43.256;26.960;2024-01-16T04:56:59;98864.63;;;8.76;100.00
11413;BME280;5762;43.256;26.960;2024-01-16T05:02:31;98929.22;;;8.48;100.00
11413;BME280;5762;43.256;26.960;2024-01-16T05:05:00;98955.95;;;8.33;100.00
11413;BME280;5762;43.256;26.960;2024-01-16T05:07:29;98973.48;;;8.19;100.00
11413;BME280;5762;43.256;26.960;2024-01-16T05:09:58;99007.62;;;8.10;100.00
11413;BME280;5762;43.256;26.960;2024-01-16T05:15:30;99058.96;;;7.89;100.00
11413;BME280;5762;43.256;26.960;2024-01-16T05:21:02;99156.61;;;7.46;100.00
11413;BME280;5762;43.256;26.960;2024-01-16T05:26:35;99214.90;;;7.15;100.00
11413;BME280;5762;43.256;26.960;2024-01-16T05:32:07;99231.24;;;6.97;100.00
11413;BME280;5762;43.256;26.960;2024-01-16T05:37:39;99269.34;;;6.83;100.00
11413;BME280;5762;43.256;26.960;2024-01-16T05:43:11;99268.98;;;6.63;100.00
11413;BME280;5762;43.256;26.960;2024-01-16T05:48:43;99306.05;;;6.37;100.00
11413;BME280;5762;43.256;26.960;2024-01-16T05:51:11;99323.39;;;6.21;100.00
11413;BME280;5762;43.256;26.960;2024-01-16T05:56:43;99374.31;;;5.92;100.00
11413;BME280;5762;43.256;26.960;2024-01-16T06:02:15;99411.98;;;5.67;100.00
11413;BME280;5762;43.256;26.960;2024-01-16T06:04:44;99415.77;;;5.56;100.00
11413;BME280;5762;43.256;26.960;2024-01-16T06:10:16;99451.52;;;5.44;100.00
11413;BME280;5762;43.256;26.960;2024-01-16T06:15:47;99515.39;;;5.36;100.00
11413;BME280;5762;43.256;26.960;2024-01-16T06:21:19;99548.94;;;5.42;100.00
11413;BME280;5762;43.256;26.960;2024-01-16T06:26:51;99627.02;;;5.35;100.00
11413;BME280;5762;43.256;26.960;2024-01-16T06:32:24;99626.39;;;4.95;100.00
11413;BME280;5762;43.256;26.960;2024-01-16T06:37:56;99700.28;;;4.68;100.00
11413;BME280;5762;43.256;26.960;2024-01-16T06:43:28;99746.69;;;4.31;100.00
11413;BME280;5762;43.256;26.960;2024-01-16T06:49:01;99800.36;;;4.10;100.00
11413;BME280;5762;43.256;26.960;2024-01-16T06:54:33;99800.07;;;3.79;100.00
11413;BME280;5762;43.256;26.960;2024-01-16T07:00:05;99839.59;;;3.72;100.00
11413;BME280;5762;43.256;26.960;2024-01-16T07:05:38;99832.81;;;3.64;100.00
11413;BME280;5762;43.256;26.960;2024-01-16T07:08:07;99841.41;;;3.66;100.00
11413;BME280;5762;43.256;26.960;2024-01-16T07:13:39;99862.07;;;3.71;100.00
11413;BME280;5762;43.256;26.960;2024-01-16T07:16:10;99857.56;;;3.74;100.00
11413;BME280;5762;43.256;26.960;2024-01-16T07:21:43;99862.70;;;3.78;100.00
11413;BME280;5762;43.256;26.960;2024-01-16T07:27:15;99855.94;;;3.73;100.00
11413;BME280;5762;43.256;26.960;2024-01-16T07:32:47;99859.48;;;3.79;100.00
11413;BME280;5762;43.256;26.960;2024-01-16T07:38:19;99877.66;;;3.77;100.00
11413;BME280;5762;43.256;26.960;2024-01-16T07:43:50;99897.21;;;3.77;100.00
11413;BME280;5762;43.256;26.960;2024-01-16T07:49:22;99907.11;;;3.77;100.00
11413;BME280;5762;43.256;26.960;2024-01-16T07:51:51;99910.31;;;3.76;100.00
11413;BME280;5762;43.256;26.960;2024-01-16T07:57:22;99923.86;;;3.91;100.00
11413;BME280;5762;43.256;26.960;2024-01-16T08:02:54;99889.09;;;3.94;100.00
11413;BME280;5762;43.256;26.960;2024-01-16T08:08:26;99887.19;;;3.92;100.00
11413;BME280;5762;43.256;26.960;2024-01-16T08:10:55;99897.68;;;3.96;100.00
11413;BME280;5762;43.256;26.960;2024-01-16T08:16:26;99839.08;;;3.99;100.00
11413;BME280;5762;43.256;26.960;2024-01-16T08:21:59;99813.08;;;4.27;100.00
11413;BME280;5762;43.256;26.960;2024-01-16T08:27:31;99808.58;;;4.32;100.00
11413;BME280;5762;43.256;26.960;2024-01-16T08:33:03;99782.30;;;4.29;100.00
11413;BME280;5762;43.256;26.960;2024-01-16T08:38:43;99784.52;;;4.37;100.00
11413;BME280;5762;43.256;26.960;2024-01-16T08:44:09;99752.94;;;4.42;100.00
11413;BME280;5762;43.256;26.960;2024-01-16T08:46:38;99780.84;;;4.46;100.00
11413;BME280;5762;43.256;26.960;2024-01-16T08:52:04;99758.73;;;4.68;100.00
11413;BME280;5762;43.256;26.960;2024-01-16T08:54:33;99756.08;;;4.74;100.00
11413;BME280;5762;43.256;26.960;2024-01-16T09:00:07;99733.06;;;4.85;100.00
11413;BME280;5762;43.256;26.960;2024-01-16T09:05:41;99688.86;;;4.93;100.00
11413;BME280;5762;43.256;26.960;2024-01-16T09:11:13;99633.88;;;4.90;100.00
11413;BME280;5762;43.256;26.960;2024-01-16T09:16:46;99630.97;;;4.99;100.00
11413;BME280;5762;43.256;26.960;2024-01-16T09:22:17;99609.55;;;5.25;100.00
11413;BME280;5762;43.256;26.960;2024-01-16T09:27:49;99579.52;;;5.30;100.00
11413;BME280;5762;43.256;26.960;2024-01-16T09:33:22;99578.16;;;5.23;100.00
11413;BME280;5762;43.256;26.960;2024-01-16T09:38:55;99587.56;;;5.18;100.00
11413;BME280;5762;43.256;26.960;2024-01-16T09:44:27;99526.13;;;5.31;100.00
11413;BME280;5762;43.256;26.960;2024-01-16T09:50:01;99530.95;;;5.45;100.00
11413;BME280;5762;43.256;26.960;2024-01-16T09:52:30;99522.63;;;5.46;100.00
11413;BME280;5762;43.256;26.960;2024-01-16T09:58:02;99512.70;;;5.54;100.00
11413;BME280;5762;43.256;26.960;2024-01-16T10:03:34;99492.97;;;6.10;100.00
11413;BME280;5762;43.256;26.960;2024-01-16T10:09:05;99469.59;;;6.13;100.00
11413;BME280;5762;43.256;26.960;2024-01-16T10:14:36;99431.23;;;5.97;100.00
11413;BME280;5762;43.256;26.960;2024-01-16T10:17:05;99409.45;;;6.03;100.00
11413;BME280;5762;43.256;26.960;2024-01-16T10:22:36;99387.55;;;6.25;100.00
11413;BME280;5762;43.256;26.960;2024-01-16T10:28:08;99401.23;;;6.29;100.00
11413;BME280;5762;43.256;26.960;2024-01-16T10:33:40;99423.73;;;6.43;100.00
11413;BME280;5762;43.256;26.960;2024-01-16T10:39:12;99387.45;;;6.43;100.00
11413;BME280;5762;43.256;26.960;2024-01-16T10:44:53;99435.57;;;6.42;100.00
11413;BME280;5762;43.256;26.960;2024-01-16T10:50:26;99445.55;;;6.34;100.00
11413;BME280;5762;43.256;26.960;2024-01-16T10:55:58;99443.70;;;6.27;100.00
11413;BME280;5762;43.256;26.960;2024-01-16T11:01:31;99397.22;;;6.26;100.00
11413;BME280;5762;43.256;26.960;2024-01-16T11:07:04;99455.09;;;6.09;100.00
11413;BME280;5762;43.256;26.960;2024-01-16T11:12:42;99501.91;;;5.82;100.00
11413;BME280;5762;43.256;26.960;2024-01-16T11:18:04;99552.13;;;5.69;100.00
11413;BME280;5762;43.256;26.960;2024-01-16T11:20:33;99572.53;;;5.65;100.00
11413;BME280;5762;43.256;26.960;2024-01-16T11:31:55;99467.30;;;5.60;100.00
11413;BME280;5762;43.256;26.960;2024-01-16T11:37:28;99476.42;;;5.62;100.00
11413;BME280;5762;43.256;26.960;2024-01-16T11:45:48;99449.33;;;5.56;100.00
11413;BME280;5762;43.256;26.960;2024-01-16T11:51:23;99453.87;;;5.68;100.00
11413;BME280;5762;43.256;26.960;2024-01-16T12:05:03;99493.91;;;5.47;100.00
11413;BME280;5762;43.256;26.960;2024-01-16T12:07:48;99502.77;;;5.52;100.00
11413;BME280;5762;43.256;26.960;2024-01-16T12:13:20;99532.53;;;5.58;100.00
11413;BME280;5762;43.256;26.960;2024-01-16T12:19:03;99547.02;;;5.85;100.00
11413;BME280;5762;43.256;26.960;2024-01-16T12:24:24;99519.36;;;5.82;100.00
11413;BME280;5762;43.256;26.960;2024-01-16T12:30:07;99551.05;;;5.78;100.00
11413;BME280;5762;43.256;26.960;2024-01-16T12:35:43;99574.41;;;5.82;100.00
11413;BME280;5762;43.256;26.960;2024-01-16T12:41:11;99551.35;;;5.46;100.00
11413;BME280;5762;43.256;26.960;2024-01-16T12:46:56;99587.84;;;5.42;100.00
11413;BME280;5762;43.256;26.960;2024-01-16T12:52:27;99572.02;;;5.43;100.00
11413;BME280;5762;43.256;26.960;2024-01-16T13:03:19;99595.06;;;5.11;100.00
11413;BME280;5762;43.256;26.960;2024-01-16T13:09:03;99614.64;;;5.21;100.00
11413;BME280;5762;43.256;26.960;2024-01-16T13:14:25;99617.07;;;5.15;100.00
11413;BME280;5762;43.256;26.960;2024-01-16T13:19:57;99607.67;;;5.13;100.00
11413;BME280;5762;43.256;26.960;2024-01-16T13:22:26;99624.84;;;5.14;100.00
11413;BME280;5762;43.256;26.960;2024-01-16T13:24:54;99632.91;;;5.17;100.00
11413;BME280;5762;43.256;26.960;2024-01-16T13:30:27;99641.48;;;5.16;100.00
11413;BME280;5762;43.256;26.960;2024-01-16T13:35:59;99676.62;;;5.17;100.00
11413;BME280;5762;43.256;26.960;2024-01-16T13:41:31;99699.20;;;5.36;100.00
11413;BME280;5762;43.256;26.960;2024-01-16T13:47:03;99695.47;;;5.43;100.00
11413;BME280;5762;43.256;26.960;2024-01-16T13:52:39;99694.90;;;5.33;100.00
11413;BME280;5762;43.256;26.960;2024-01-16T13:58:08;99686.33;;;5.41;100.00
11413;BME280;5762;43.256;26.960;2024-01-16T14:03:40;99712.91;;;5.43;100.00
11413;BME280;5762;43.256;26.960;2024-01-16T14:06:09;99705.94;;;5.44;100.00
11413;BME280;5762;43.256;26.960;2024-01-16T14:11:41;99732.97;;;5.25;100.00
11413;BME280;5762;43.256;26.960;2024-01-16T14:17:13;99756.45;;;4.95;100.00
11413;BME280;5762;43.256;26.960;2024-01-16T14:22:45;99761.51;;;4.84;100.00
11413;BME280;5762;43.256;26.960;2024-01-16T14:25:14;99776.79;;;4.83;100.00
11413;BME280;5762;43.256;26.960;2024-01-16T14:27:43;99779.20;;;4.87;100.00
11413;BME280;5762;43.256;26.960;2024-01-16T14:33:16;99751.58;;;4.87;100.00
11413;BME280;5762;43.256;26.960;2024-01-16T14:35:45;99760.69;;;4.81;100.00
11413;BME280;5762;43.256;26.960;2024-01-16T14:41:17;99783.64;;;4.66;100.00
11413;BME280;5762;43.256;26.960;2024-01-16T14:43:45;99801.33;;;4.65;100.00
11413;BME280;5762;43.256;26.960;2024-01-16T14:49:18;99805.97;;;4.77;100.00
11413;BME280;5762;43.256;26.960;2024-01-16T14:54:50;99814.77;;;4.70;100.00
11413;BME280;5762;43.256;26.960;2024-01-16T15:00:22;99833.55;;;4.73;100.00
11413;BME280;5762;43.256;26.960;2024-01-16T15:05:54;99840.77;;;4.69;100.00
11413;BME280;5762;43.256;26.960;2024-01-16T15:11:26;99864.11;;;4.40;100.00
11413;BME280;5762;43.256;26.960;2024-01-16T15:16:56;99883.48;;;4.22;100.00
11413;BME280;5762;43.256;26.960;2024-01-16T15:22:28;99910.60;;;4.01;100.00
11413;BME280;5762;43.256;26.960;2024-01-16T15:28:00;99952.19;;;3.87;100.00
11413;BME280;5762;43.256;26.960;2024-01-16T15:33:32;99982.66;;;3.84;100.00
11413;BME280;5762;43.256;26.960;2024-01-16T15:38:59;100014.03;;;3.66;100.00
11413;BME280;5762;43.256;26.960;2024-01-16T15:41:28;100018.56;;;3.66;100.00
11413;BME280;5762;43.256;26.960;2024-01-16T15:47:01;100025.83;;;3.68;100.00
11413;BME280;5762;43.256;26.960;2024-01-16T15:52:32;100042.41;;;3.67;100.00
11413;BME280;5762;43.256;26.960;2024-01-16T15:58:04;100074.73;;;3.63;100.00
11413;BME280;5762;43.256;26.960;2024-01-16T16:00:32;100085.97;;;3.63;100.00
11413;BME280;5762;43.256;26.960;2024-01-16T16:06:04;100093.83;;;3.69;100.00
11413;BME280;5762;43.256;26.960;2024-01-16T16:11:39;100119.26;;;3.69;100.00
11413;BME280;5762;43.256;26.960;2024-01-16T16:14:14;100119.22;;;3.67;100.00
11413;BME280;5762;43.256;26.960;2024-01-16T16:19:46;100168.42;;;3.80;100.00
11413;BME280;5762;43.256;26.960;2024-01-16T16:25:18;100170.98;;;3.58;100.00
11413;BME280;5762;43.256;26.960;2024-01-16T16:30:49;100193.00;;;3.46;100.00
11413;BME280;5762;43.256;26.960;2024-01-16T16:36:21;100213.16;;;3.37;100.00
11413;BME280;5762;43.256;26.960;2024-01-16T16:41:53;100249.25;;;3.23;100.00
11413;BME280;5762;43.256;26.960;2024-01-16T16:47:25;100278.80;;;3.16;100.00
11413;BME280;5762;43.256;26.960;2024-01-16T16:52:57;100304.77;;;3.04;100.00
11413;BME280;5762;43.256;26.960;2024-01-16T16:58:29;100349.01;;;2.97;100.00
11413;BME280;5762;43.256;26.960;2024-01-16T17:00:57;100364.12;;;2.92;100.00
11413;BME280;5762;43.256;26.960;2024-01-16T17:06:30;100368.30;;;2.88;100.00
11413;BME280;5762;43.256;26.960;2024-01-16T17:12:02;100390.44;;;2.86;100.00
11413;BME280;5762;43.256;26.960;2024-01-16T17:17:29;100391.55;;;2.76;100.00
11413;BME280;5762;43.256;26.960;2024-01-16T17:19:58;100404.79;;;2.71;100.00
11413;BME280;5762;43.256;26.960;2024-01-16T17:25:29;100425.61;;;2.59;100.00
11413;BME280;5762;43.256;26.960;2024-01-16T17:31:01;100451.59;;;2.41;100.00
11413;BME280;5762;43.256;26.960;2024-01-16T17:36:32;100492.44;;;2.50;100.00
11413;BME280;5762;43.256;26.960;2024-01-16T17:42:04;100503.48;;;2.24;100.00
11413;BME280;5762;43.256;26.960;2024-01-16T17:47:36;100519.30;;;1.98;100.00
11413;BME280;5762;43.256;26.960;2024-01-16T17:53:08;100543.16;;;1.84;100.00
11413;BME280;5762;43.256;26.960;2024-01-16T17:58:43;100557.91;;;1.86;100.00
11413;BME280;5762;43.256;26.960;2024-01-16T18:01:12;100566.89;;;1.92;100.00
11413;BME280;5762;43.256;26.960;2024-01-16T18:06:44;100575.59;;;2.06;100.00
11413;BME280;5762;43.256;26.960;2024-01-16T18:12:16;100585.81;;;1.99;100.00
11413;BME280;5762;43.256;26.960;2024-01-16T18:14:44;100587.59;;;1.96;100.00
11413;BME280;5762;43.256;26.960;2024-01-16T18:20:16;100584.62;;;1.95;100.00
11413;BME280;5762;43.256;26.960;2024-01-16T18:25:49;100565.34;;;1.93;100.00
11413;BME280;5762;43.256;26.960;2024-01-16T18:31:22;100549.55;;;1.92;100.00
11413;BME280;5762;43.256;26.960;2024-01-16T18:36:53;100553.61;;;1.85;100.00
11413;BME280;5762;43.256;26.960;2024-01-16T18:42:25;100558.20;;;1.78;100.00
11413;BME280;5762;43.256;26.960;2024-01-16T18:44:54;100553.30;;;1.75;100.00
11413;BME280;5762;43.256;26.960;2024-01-16T18:50:20;100543.44;;;1.76;100.00
11413;BME280;5762;43.256;26.960;2024-01-16T18:52:48;100541.88;;;1.77;100.00
11413;BME280;5762;43.256;26.960;2024-01-16T18:58:21;100519.94;;;1.75;100.00
11413;BME280;5762;43.256;26.960;2024-01-16T19:03:52;100468.66;;;1.91;100.00
11413;BME280;5762;43.256;26.960;2024-01-16T19:09:25;100436.84;;;1.81;100.00
11413;BME280;5762;43.256;26.960;2024-01-16T19:14:57;100460.37;;;1.72;100.00
11413;BME280;5762;43.256;26.960;2024-01-16T19:20:28;100465.70;;;1.63;100.00
11413;BME280;5762;43.256;26.960;2024-01-16T19:26:01;100481.55;;;1.58;100.00
11413;BME280;5762;43.256;26.960;2024-01-16T19:31:36;100505.91;;;1.52;100.00
11413;BME280;5762;43.256;26.960;2024-01-16T19:37:08;100511.69;;;1.49;100.00
11413;BME280;5762;43.256;26.960;2024-01-16T19:42:41;100512.70;;;1.39;100.00
11413;BME280;5762;43.256;26.960;2024-01-16T19:45:10;100511.42;;;1.23;100.00
11413;BME280;5762;43.256;26.960;2024-01-16T19:50:46;100538.97;;;1.02;100.00
11413;BME280;5762;43.256;26.960;2024-01-16T19:56:17;100571.33;;;0.51;100.00
11413;BME280;5762;43.256;26.960;2024-01-16T20:01:49;100611.47;;;0.27;100.00
11413;BME280;5762;43.256;26.960;2024-01-16T20:07:21;100648.33;;;0.30;100.00
11413;BME280;5762;43.256;26.960;2024-01-16T20:12:52;100645.08;;;0.51;100.00
11413;BME280;5762;43.256;26.960;2024-01-16T20:18:23;100640.98;;;0.13;100.00
11413;BME280;5762;43.256;26.960;2024-01-16T20:23:56;100676.20;;;0.02;100.00
11413;BME280;5762;43.256;26.960;2024-01-16T20:29:27;100695.75;;;0.05;100.00
11413;BME280;5762;43.256;26.960;2024-01-16T20:34:59;100705.47;;;0.08;100.00
11413;BME280;5762;43.256;26.960;2024-01-16T20:40:31;100711.36;;;0.43;100.00
11413;BME280;5762;43.256;26.960;2024-01-16T20:46:03;100696.14;;;0.35;100.00
11413;BME280;5762;43.256;26.960;2024-01-16T20:48:31;100686.00;;;0.34;100.00
11413;BME280;5762;43.256;26.960;2024-01-16T20:54:03;100713.11;;;0.40;100.00
11413;BME280;5762;43.256;26.960;2024-01-16T20:59:36;100689.77;;;0.36;100.00
11413;BME280;5762;43.256;26.960;2024-01-16T21:05:07;100678.65;;;0.10;100.00
11413;BME280;5762;43.256;26.960;2024-01-16T21:10:39;100708.16;;;-0.12;100.00
11413;BME280;5762;43.256;26.960;2024-01-16T21:16:11;100733.37;;;-0.51;100.00
11413;BME280;5762;43.256;26.960;2024-01-16T21:21:42;100801.42;;;-0.70;100.00
11413;BME280;5762;43.256;26.960;2024-01-16T21:27:15;100839.69;;;-0.82;100.00
11413;BME280;5762;43.256;26.960;2024-01-16T21:32:46;100874.61;;;-0.68;100.00
11413;BME280;5762;43.256;26.960;2024-01-16T21:38:18;100902.13;;;-0.47;100.00
11413;BME280;5762;43.256;26.960;2024-01-16T21:43:51;100886.59;;;-0.85;100.00
11413;BME280;5762;43.256;26.960;2024-01-16T21:49:18;100908.77;;;-0.64;100.00
11413;BME280;5762;43.256;26.960;2024-01-16T21:51:47;100904.58;;;-0.70;100.00
11413;BME280;5762;43.256;26.960;2024-01-16T21:57:19;100893.23;;;-0.85;100.00
11413;BME280;5762;43.256;26.960;2024-01-16T22:02:46;100875.45;;;-0.84;100.00
11413;BME280;5762;43.256;26.960;2024-01-16T22:05:14;100858.88;;;-0.86;100.00
11413;BME280;5762;43.256;26.960;2024-01-16T22:10:46;100870.17;;;-0.95;100.00
11413;BME280;5762;43.256;26.960;2024-01-16T22:13:15;100885.67;;;-0.98;100.00
11413;BME280;5762;43.256;26.960;2024-01-16T22:18:47;100868.29;;;-1.46;100.00
11413;BME280;5762;43.256;26.960;2024-01-16T22:24:18;100884.50;;;-1.35;100.00
11413;BME280;5762;43.256;26.960;2024-01-16T22:29:50;100887.52;;;-1.16;100.00
11413;BME280;5762;43.256;26.960;2024-01-16T22:35:22;100879.25;;;-0.83;100.00
11413;BME280;5762;43.256;26.960;2024-01-16T22:40:54;100829.48;;;-1.58;100.00
11413;BME280;5762;43.256;26.960;2024-01-16T22:46:26;100857.67;;;-1.57;100.00
11413;BME280;5762;43.256;26.960;2024-01-16T22:51:58;100883.71;;;-1.56;100.00
11413;BME280;5762;43.256;26.960;2024-01-16T22:57:25;100887.44;;;-1.51;100.00
11413;BME280;5762;43.256;26.960;2024-01-16T22:59:53;100879.79;;;-1.71;100.00
11413;BME280;5762;43.256;26.960;2024-01-16T23:05:25;100880.77;;;-1.79;100.00
11413;BME280;5762;43.256;26.960;2024-01-16T23:10:57;100899.15;;;-1.77;100.00
11413;BME280;5762;43.256;26.960;2024-01-16T23:13:26;100892.01;;;-1.77;100.00
11413;BME280;5762;43.256;26.960;2024-01-16T23:18:58;100905.45;;;-1.57;100.00
11413;BME280;5762;43.256;26.960;2024-01-16T23:24:19;100924.32;;;-1.24;100.00
11413;BME280;5762;43.256;26.960;2024-01-16T23:26:48;100928.87;;;-1.18;100.00
11413;BME280;5762;43.256;26.960;2024-01-16T23:32:20;100917.88;;;-1.25;100.00
11413;BME280;5762;43.256;26.960;2024-01-16T23:37:52;100919.32;;;-0.95;100.00
11413;BME280;5762;43.256;26.960;2024-01-16T23:43:25;100901.11;;;-0.98;100.00
11413;BME280;5762;43.256;26.960;2024-01-16T23:48:57;100881.56;;;-1.01;100.00
11413;BME280;5762;43.256;26.960;2024-01-16T23:54:28;100878.62;;;-0.85;100.00
11413;BME280;5762;43.256;26.960;2024-01-16T23:59:55;100862.00;;;-0.93;100.00
